Airfield :
LOGIN :

Register | Disclaimer

   EN    FR    IT 

 










Legend :    VFR   Marginal VFR   IFR   Intensive IFR   Very Intensive IFR
Visi :
Ceiling :
>= 8 km
>= 3000ft
5 to 8 km
1000 to 3000 ft
1500m to 5 km
500 to 1000 ft
800 to 1500m
200 to 500 ft
< 800m
< 200 ft
Symbols :   Thunderstorms  Fog  Heavy snow  Heavy precipitations  Wind > 20 kt
SIGMETs :     Misc.  Thunderstorms  Icing  Turbulence  Mountain Waves  Volcanic Ashes






- Airport Elevation : 461 ft
- IATA code : WIE


ETOU - Wiesbaden Army

CURRENT METAR :
  • 282056Z 20008KT 9999 SCT040 03/M01 A2955 A20A SLPNO WND ESTMD ALSTG ESTMD

EXPIRED METARs :
  • 281956Z 20008KT 9999 SCT040 03/M01 A2955 A20A SLPNO WND ESTMD ALSTG ESTMD
  • 281856Z 21009KT 9999 FEW040 03/M01 A2953 A20A SLPNO WND ESTMD ALSTG ESTMD

TAF TAF ETOU
Valid from the 28 at 20:00 until the 30 at 02:00 UTC


282000Z 2820/3002 20009KT 9999 SCT020 QNH2955INS
BECMG 2900/2901 24010KT 6000 -RA BKN010 QNH2960INS
BECMG 2905/2906 25010KT 9999 NSW SCT020 QNH2963INS
BECMG 2911/2912 27015G25KT 9999 BKN040 QNH2972INS
BECMG 2917/2918 27010KT 9999 BKN020 QNH2990INS TX06/2912Z TN02/2904Z



MET'MAP, your aeronautical weather chart ! - Copyright ORBIFLY December 2007 - Disclaimer

ORBIFLY MET'MAP TEAM :

Programming & Development : Alexandra Zaïnal
Concept & original design : Baudouin d'Aumeries
Assistance for programming : Marc-Olivier Méhu
Technical & hardware support : Manuel Goepfert

Contact : metmap@orbifly.com




SOURCES & CREDITS :

   NOAA